Canyondam, California
Current Conditions -  °F | °C
As of 9:50 AM on Monday 24 Nov 2014 (Local Time) from KCIC Reporting Station
Scattered Clouds Scattered Clouds  
Wind Chill: 44°   Ceiling: Unl
Heat Index: 48°   Visibility: 80mi
Dew Point: 39°   Wind: 9mph
Humidity: 71%   Direction: 300°WNW
Pressure: 30.41"   Gusts: NA
Location:  40.1828°N, 121.1496°W
Report Text: KCIC 241750Z 30008KT 80SM SCT200 09/04 A3041
Loading
Personal Weather Stations






























Interactive Weather Map New forecast layout! Learn more

10-Day Weather Forecast

Advertisements
Track Severe Weather on mobile